Hauptseite
METAR-TAF:

METAR-TAF

Flughäfen :

Flughafen Córdoba

Córdoba, Argentinien

Breite: 31-19S, Länge: 064-13W, Höhe: 484 m

Beobachtung

Neuester Wetterbericht von vor 16 Minuten, um 13:00 UTC
Wind 4 kt aus Nordwest
Temperatur 16°C
Luftfeuchtigkeit 59%
Luftdruck 1018 hPa
Sichtweite 10 km oder mehr
Leicht bewölkt in der Höhe von 3000 ft
Durchbrochene Bewölkung in der Höhe von 20000 ft

METAR: SACO 201300Z 31004KT 9999 FEW030 BKN200 16/08 Q1018 NOSIG

Zeit: 10:16 (13:16 UTC)

Prognose

Neuester Wetterbericht von vor 8 Stunden und 16 Minuten, um 05:00 UTC
Gültige Prognose vom 20 um 06 UTC bis 21 um 06 UTC
Wind 5 kt aus West
Sichtweite 10 km oder mehr
keine Wolken unter 1500 m und keine Kumulonimbus oder Gewitterwolken
Übergehend zu
vom 20 um 13 UTC bis 20 um 16 UTC
Wind 10 kt aus Nordost

TAF: SACO 200500Z 2006/2106 27005KT CAVOK TX22/2018Z TN06/2010Z BECMG 2013/2016 05010KT

Wetterbeobachtungen und Prognosen von mehr als 4000 Flughäfen (METAR und TAF Bericht).

Die verfügbaren Stationen werden durch gelbe und rote Markierungen auf der Karte dargestellt.

Führen Sie die Maus auf sie, um den Namen der Station zu sehen.

Darauf klicken, um die Beobachtung von Wetterbeobachtungen und Prognosen zu sehen.

Um die Karte zu ändern : klicken Sie auf den grünen Tasten mit einem schwarzen Kreuz Zum Vergrößern, auf den grünen Button mit einem Gedankenstrich zu verkleinern, oder auf die grünen Pfeile für benachbarte Karten.


METAR-TAF: